• location
  • image
Airport

AP V2 EN

 

 

Click here to view short presentation ->

Today

Friday, 31 October 2014

Weather Forecast

Siauliai 0 °C
   

Aviation Weather Forecast

[source: ADDS]
METAR
EYSA 312150Z 24005KT 0500 0450NW R32R/0550N FZFG FEW002 M02/M02 Q1025 =
TAF
TAF COR EYSA 312000Z 3121/0106 VRB04KT 0400 FG VV002 TEMPO 3121/3124 1500 BR BKN005 =
SR / SS: 05:30 / 14:52 UTC (EYSA 2014-10-31)

Who's Online

We have 4 guests online

tic logo en